sensor_id;sensor_type;location;lat;lon;timestamp;P1;durP1;ratioP1;P2;durP2;ratioP2
56477;SDS011;42382;53.210;5.772;2023-06-04T00:01:34;9.52;;;2.20;;
56477;SDS011;42382;53.210;5.772;2023-06-04T00:03:59;9.82;;;2.17;;
56477;SDS011;42382;53.210;5.772;2023-06-04T00:06:25;9.93;;;2.95;;
56477;SDS011;42382;53.210;5.772;2023-06-04T00:08:50;10.27;;;2.83;;
56477;SDS011;42382;53.210;5.772;2023-06-04T00:11:16;6.13;;;2.28;;
56477;SDS011;42382;53.210;5.772;2023-06-04T00:13:41;6.47;;;2.47;;
56477;SDS011;42382;53.210;5.772;2023-06-04T00:16:07;8.82;;;2.58;;
56477;SDS011;42382;53.210;5.772;2023-06-04T00:18:33;7.97;;;2.55;;
56477;SDS011;42382;53.210;5.772;2023-06-04T00:20:58;7.05;;;2.42;;
56477;SDS011;42382;53.210;5.772;2023-06-04T00:23:24;10.90;;;2.67;;
56477;SDS011;42382;53.210;5.772;2023-06-04T00:25:50;9.93;;;2.75;;
56477;SDS011;42382;53.210;5.772;2023-06-04T00:28:15;10.43;;;2.90;;
56477;SDS011;42382;53.210;5.772;2023-06-04T00:30:41;6.90;;;2.03;;
56477;SDS011;42382;53.210;5.772;2023-06-04T00:33:06;8.82;;;2.08;;
56477;SDS011;42382;53.210;5.772;2023-06-04T00:35:32;7.57;;;2.05;;
56477;SDS011;42382;53.210;5.772;2023-06-04T00:37:58;6.70;;;2.20;;
56477;SDS011;42382;53.210;5.772;2023-06-04T00:40:23;8.38;;;2.25;;
56477;SDS011;42382;53.210;5.772;2023-06-04T00:42:49;8.90;;;2.33;;
56477;SDS011;42382;53.210;5.772;2023-06-04T00:45:15;6.00;;;2.22;;
56477;SDS011;42382;53.210;5.772;2023-06-04T00:47:43;8.00;;;2.15;;
56477;SDS011;42382;53.210;5.772;2023-06-04T00:50:10;6.78;;;2.55;;
56477;SDS011;42382;53.210;5.772;2023-06-04T00:52:36;9.05;;;2.83;;
56477;SDS011;42382;53.210;5.772;2023-06-04T00:55:02;11.60;;;2.67;;
56477;SDS011;42382;53.210;5.772;2023-06-04T00:57:28;7.85;;;2.15;;
56477;SDS011;42382;53.210;5.772;2023-06-04T00:59:53;6.43;;;2.00;;
56477;SDS011;42382;53.210;5.772;2023-06-04T01:02:23;11.00;;;2.75;;
56477;SDS011;42382;53.210;5.772;2023-06-04T01:05:04;9.45;;;2.10;;
56477;SDS011;42382;53.210;5.772;2023-06-04T01:07:50;11.30;;;2.38;;
56477;SDS011;42382;53.210;5.772;2023-06-04T01:10:17;8.38;;;2.50;;
56477;SDS011;42382;53.210;5.772;2023-06-04T01:12:43;6.45;;;2.22;;
56477;SDS011;42382;53.210;5.772;2023-06-04T01:15:10;8.82;;;2.28;;
56477;SDS011;42382;53.210;5.772;2023-06-04T01:28:01;8.32;;;1.35;;
56477;SDS011;42382;53.210;5.772;2023-06-04T01:30:29;8.07;;;2.05;;
56477;SDS011;42382;53.210;5.772;2023-06-04T01:33:00;6.93;;;1.60;;
56477;SDS011;42382;53.210;5.772;2023-06-04T01:35:26;5.72;;;1.98;;
56477;SDS011;42382;53.210;5.772;2023-06-04T01:37:53;7.07;;;1.83;;
56477;SDS011;42382;53.210;5.772;2023-06-04T01:40:19;9.57;;;2.10;;
56477;SDS011;42382;53.210;5.772;2023-06-04T01:42:45;13.63;;;3.33;;
56477;SDS011;42382;53.210;5.772;2023-06-04T01:45:11;10.32;;;3.17;;
56477;SDS011;42382;53.210;5.772;2023-06-04T01:47:37;8.07;;;2.72;;
56477;SDS011;42382;53.210;5.772;2023-06-04T01:50:04;9.95;;;2.95;;
56477;SDS011;42382;53.210;5.772;2023-06-04T01:52:34;9.98;;;2.67;;
56477;SDS011;42382;53.210;5.772;2023-06-04T01:55:01;9.85;;;3.47;;
56477;SDS011;42382;53.210;5.772;2023-06-04T01:57:29;11.30;;;3.60;;
56477;SDS011;42382;53.210;5.772;2023-06-04T01:59:55;11.27;;;4.00;;
56477;SDS011;42382;53.210;5.772;2023-06-04T02:02:21;13.00;;;4.05;;
56477;SDS011;42382;53.210;5.772;2023-06-04T02:04:47;14.73;;;4.47;;
56477;SDS011;42382;53.210;5.772;2023-06-04T02:07:12;10.18;;;4.00;;
56477;SDS011;42382;53.210;5.772;2023-06-04T02:09:46;7.28;;;3.65;;
56477;SDS011;42382;53.210;5.772;2023-06-04T02:12:12;7.10;;;3.13;;
56477;SDS011;42382;53.210;5.772;2023-06-04T02:14:38;10.77;;;3.85;;
56477;SDS011;42382;53.210;5.772;2023-06-04T02:17:04;14.50;;;3.67;;
56477;SDS011;42382;53.210;5.772;2023-06-04T02:19:37;12.93;;;3.85;;
56477;SDS011;42382;53.210;5.772;2023-06-04T02:22:12;10.05;;;4.05;;
56477;SDS011;42382;53.210;5.772;2023-06-04T02:24:38;11.43;;;3.80;;
56477;SDS011;42382;53.210;5.772;2023-06-04T02:27:07;10.27;;;3.33;;
56477;SDS011;42382;53.210;5.772;2023-06-04T02:29:33;6.57;;;3.00;;
56477;SDS011;42382;53.210;5.772;2023-06-04T02:31:59;8.13;;;3.10;;
56477;SDS011;42382;53.210;5.772;2023-06-04T02:34:25;11.82;;;4.07;;
56477;SDS011;42382;53.210;5.772;2023-06-04T02:36:51;14.65;;;3.70;;
56477;SDS011;42382;53.210;5.772;2023-06-04T02:39:18;9.77;;;3.60;;
56477;SDS011;42382;53.210;5.772;2023-06-04T02:41:44;9.43;;;3.30;;
56477;SDS011;42382;53.210;5.772;2023-06-04T02:44:10;9.85;;;3.33;;
56477;SDS011;42382;53.210;5.772;2023-06-04T02:46:36;9.25;;;3.35;;
56477;SDS011;42382;53.210;5.772;2023-06-04T02:49:02;8.05;;;2.40;;
56477;SDS011;42382;53.210;5.772;2023-06-04T02:51:28;13.57;;;3.78;;
56477;SDS011;42382;53.210;5.772;2023-06-04T02:53:54;7.22;;;3.13;;
56477;SDS011;42382;53.210;5.772;2023-06-04T02:56:19;10.23;;;3.03;;
56477;SDS011;42382;53.210;5.772;2023-06-04T02:58:52;8.27;;;2.80;;
56477;SDS011;42382;53.210;5.772;2023-06-04T03:01:20;11.00;;;3.42;;
56477;SDS011;42382;53.210;5.772;2023-06-04T03:03:50;10.93;;;3.13;;
56477;SDS011;42382;53.210;5.772;2023-06-04T03:06:16;10.40;;;2.88;;
56477;SDS011;42382;53.210;5.772;2023-06-04T03:08:43;10.73;;;3.03;;
56477;SDS011;42382;53.210;5.772;2023-06-04T03:11:08;11.48;;;3.20;;
56477;SDS011;42382;53.210;5.772;2023-06-04T03:13:34;10.23;;;3.17;;
56477;SDS011;42382;53.210;5.772;2023-06-04T03:16:02;9.32;;;3.05;;
56477;SDS011;42382;53.210;5.772;2023-06-04T03:18:28;10.55;;;3.28;;
56477;SDS011;42382;53.210;5.772;2023-06-04T03:20:54;9.98;;;3.90;;
56477;SDS011;42382;53.210;5.772;2023-06-04T03:23:20;10.98;;;3.63;;
56477;SDS011;42382;53.210;5.772;2023-06-04T03:25:46;7.53;;;3.88;;
56477;SDS011;42382;53.210;5.772;2023-06-04T03:28:12;8.40;;;3.45;;
56477;SDS011;42382;53.210;5.772;2023-06-04T03:30:39;12.20;;;3.35;;
56477;SDS011;42382;53.210;5.772;2023-06-04T03:33:05;10.55;;;3.30;;
56477;SDS011;42382;53.210;5.772;2023-06-04T03:35:30;8.40;;;3.15;;
56477;SDS011;42382;53.210;5.772;2023-06-04T03:37:56;8.43;;;3.58;;
56477;SDS011;42382;53.210;5.772;2023-06-04T03:40:22;7.53;;;3.60;;
56477;SDS011;42382;53.210;5.772;2023-06-04T03:42:47;7.50;;;3.55;;
56477;SDS011;42382;53.210;5.772;2023-06-04T03:45:13;7.88;;;3.55;;
56477;SDS011;42382;53.210;5.772;2023-06-04T03:47:39;7.65;;;3.17;;
56477;SDS011;42382;53.210;5.772;2023-06-04T03:50:05;8.05;;;3.08;;
56477;SDS011;42382;53.210;5.772;2023-06-04T03:52:31;9.05;;;3.92;;
56477;SDS011;42382;53.210;5.772;2023-06-04T03:54:57;7.20;;;4.10;;
56477;SDS011;42382;53.210;5.772;2023-06-04T03:57:23;9.10;;;4.47;;
56477;SDS011;42382;53.210;5.772;2023-06-04T03:59:49;5.10;;;3.40;;
56477;SDS011;42382;53.210;5.772;2023-06-04T04:02:15;9.18;;;4.53;;
56477;SDS011;42382;53.210;5.772;2023-06-04T04:04:43;6.78;;;4.35;;
56477;SDS011;42382;53.210;5.772;2023-06-04T04:07:08;8.02;;;4.70;;
56477;SDS011;42382;53.210;5.772;2023-06-04T04:09:35;8.93;;;5.10;;
56477;SDS011;42382;53.210;5.772;2023-06-04T04:12:01;8.40;;;4.90;;
56477;SDS011;42382;53.210;5.772;2023-06-04T04:14:27;12.57;;;5.68;;
56477;SDS011;42382;53.210;5.772;2023-06-04T04:16:52;12.15;;;5.35;;
56477;SDS011;42382;53.210;5.772;2023-06-04T04:19:18;8.15;;;4.10;;
56477;SDS011;42382;53.210;5.772;2023-06-04T04:21:44;6.78;;;5.15;;
56477;SDS011;42382;53.210;5.772;2023-06-04T04:24:21;9.60;;;5.10;;
56477;SDS011;42382;53.210;5.772;2023-06-04T04:26:59;7.85;;;4.88;;
56477;SDS011;42382;53.210;5.772;2023-06-04T04:29:25;8.45;;;5.00;;
56477;SDS011;42382;53.210;5.772;2023-06-04T04:31:53;8.43;;;4.80;;
56477;SDS011;42382;53.210;5.772;2023-06-04T04:34:22;11.32;;;4.55;;
56477;SDS011;42382;53.210;5.772;2023-06-04T04:36:50;8.45;;;5.22;;
56477;SDS011;42382;53.210;5.772;2023-06-04T04:39:19;11.40;;;5.15;;
56477;SDS011;42382;53.210;5.772;2023-06-04T04:41:49;7.50;;;5.10;;
56477;SDS011;42382;53.210;5.772;2023-06-04T04:44:16;8.05;;;5.32;;
56477;SDS011;42382;53.210;5.772;2023-06-04T04:46:41;9.88;;;4.45;;
56477;SDS011;42382;53.210;5.772;2023-06-04T04:49:07;10.20;;;4.75;;
56477;SDS011;42382;53.210;5.772;2023-06-04T04:51:32;9.18;;;5.32;;
56477;SDS011;42382;53.210;5.772;2023-06-04T04:53:58;8.05;;;5.72;;
56477;SDS011;42382;53.210;5.772;2023-06-04T04:56:33;7.80;;;5.57;;
56477;SDS011;42382;53.210;5.772;2023-06-04T04:59:00;9.13;;;5.55;;
56477;SDS011;42382;53.210;5.772;2023-06-04T05:01:26;10.63;;;5.20;;
56477;SDS011;42382;53.210;5.772;2023-06-04T05:03:51;15.40;;;6.00;;
56477;SDS011;42382;53.210;5.772;2023-06-04T05:06:17;10.60;;;5.85;;
56477;SDS011;42382;53.210;5.772;2023-06-04T05:08:44;12.15;;;5.10;;
56477;SDS011;42382;53.210;5.772;2023-06-04T05:11:10;11.25;;;5.60;;
56477;SDS011;42382;53.210;5.772;2023-06-04T05:13:36;12.65;;;5.05;;
56477;SDS011;42382;53.210;5.772;2023-06-04T05:16:02;12.95;;;5.47;;
56477;SDS011;42382;53.210;5.772;2023-06-04T05:18:36;9.52;;;4.40;;
56477;SDS011;42382;53.210;5.772;2023-06-04T05:21:05;10.95;;;4.70;;
56477;SDS011;42382;53.210;5.772;2023-06-04T05:23:32;7.32;;;4.15;;
56477;SDS011;42382;53.210;5.772;2023-06-04T05:26:02;12.20;;;5.38;;
56477;SDS011;42382;53.210;5.772;2023-06-04T05:28:28;7.82;;;4.13;;
56477;SDS011;42382;53.210;5.772;2023-06-04T05:30:53;7.85;;;4.88;;
56477;SDS011;42382;53.210;5.772;2023-06-04T05:33:27;10.77;;;4.78;;
56477;SDS011;42382;53.210;5.772;2023-06-04T05:35:55;7.28;;;4.10;;
56477;SDS011;42382;53.210;5.772;2023-06-04T05:38:25;8.25;;;3.60;;
56477;SDS011;42382;53.210;5.772;2023-06-04T05:40:54;11.93;;;5.38;;
56477;SDS011;42382;53.210;5.772;2023-06-04T05:43:20;6.20;;;3.72;;
56477;SDS011;42382;53.210;5.772;2023-06-04T05:45:47;9.30;;;3.30;;
56477;SDS011;42382;53.210;5.772;2023-06-04T05:48:13;9.38;;;4.43;;
56477;SDS011;42382;53.210;5.772;2023-06-04T05:50:38;9.15;;;3.55;;
56477;SDS011;42382;53.210;5.772;2023-06-04T05:53:04;10.68;;;4.95;;
56477;SDS011;42382;53.210;5.772;2023-06-04T05:55:30;9.98;;;4.75;;
56477;SDS011;42382;53.210;5.772;2023-06-04T05:57:56;13.32;;;5.00;;
56477;SDS011;42382;53.210;5.772;2023-06-04T06:00:21;11.35;;;5.22;;
56477;SDS011;42382;53.210;5.772;2023-06-04T06:02:49;12.75;;;5.53;;
56477;SDS011;42382;53.210;5.772;2023-06-04T06:05:15;11.60;;;5.47;;
56477;SDS011;42382;53.210;5.772;2023-06-04T06:07:41;10.55;;;4.68;;
56477;SDS011;42382;53.210;5.772;2023-06-04T06:10:07;11.77;;;4.95;;
56477;SDS011;42382;53.210;5.772;2023-06-04T06:12:33;9.35;;;4.38;;
56477;SDS011;42382;53.210;5.772;2023-06-04T06:14:59;12.98;;;4.32;;
56477;SDS011;42382;53.210;5.772;2023-06-04T06:17:24;6.50;;;3.30;;
56477;SDS011;42382;53.210;5.772;2023-06-04T06:19:51;8.80;;;3.45;;
56477;SDS011;42382;53.210;5.772;2023-06-04T06:22:17;14.20;;;3.65;;
56477;SDS011;42382;53.210;5.772;2023-06-04T06:24:43;11.05;;;3.65;;
56477;SDS011;42382;53.210;5.772;2023-06-04T06:27:09;9.80;;;4.03;;
56477;SDS011;42382;53.210;5.772;2023-06-04T06:29:35;5.68;;;3.45;;
56477;SDS011;42382;53.210;5.772;2023-06-04T06:32:01;9.38;;;3.45;;
56477;SDS011;42382;53.210;5.772;2023-06-04T06:34:27;10.90;;;3.20;;
56477;SDS011;42382;53.210;5.772;2023-06-04T06:36:53;9.18;;;3.67;;
56477;SDS011;42382;53.210;5.772;2023-06-04T06:39:18;9.55;;;3.40;;
56477;SDS011;42382;53.210;5.772;2023-06-04T06:41:45;8.57;;;3.13;;
56477;SDS011;42382;53.210;5.772;2023-06-04T06:44:10;6.70;;;2.03;;
56477;SDS011;42382;53.210;5.772;2023-06-04T06:46:36;13.90;;;3.10;;
56477;SDS011;42382;53.210;5.772;2023-06-04T06:49:02;8.95;;;2.35;;
56477;SDS011;42382;53.210;5.772;2023-06-04T06:51:27;9.27;;;2.55;;
56477;SDS011;42382;53.210;5.772;2023-06-04T06:53:53;8.70;;;2.72;;
56477;SDS011;42382;53.210;5.772;2023-06-04T06:56:18;8.85;;;2.33;;
56477;SDS011;42382;53.210;5.772;2023-06-04T06:58:44;5.78;;;2.10;;
56477;SDS011;42382;53.210;5.772;2023-06-04T07:01:10;5.72;;;1.80;;
56477;SDS011;42382;53.210;5.772;2023-06-04T07:03:36;6.25;;;2.47;;
56477;SDS011;42382;53.210;5.772;2023-06-04T07:06:03;5.28;;;2.10;;
56477;SDS011;42382;53.210;5.772;2023-06-04T07:08:29;5.53;;;1.27;;
56477;SDS011;42382;53.210;5.772;2023-06-04T07:10:55;4.82;;;1.60;;
56477;SDS011;42382;53.210;5.772;2023-06-04T07:13:20;11.25;;;2.45;;
56477;SDS011;42382;53.210;5.772;2023-06-04T07:15:46;4.70;;;1.20;;
56477;SDS011;42382;53.210;5.772;2023-06-04T07:18:11;8.63;;;1.63;;
56477;SDS011;42382;53.210;5.772;2023-06-04T07:20:37;6.35;;;1.77;;
56477;SDS011;42382;53.210;5.772;2023-06-04T07:23:03;6.07;;;1.67;;
56477;SDS011;42382;53.210;5.772;2023-06-04T07:25:28;9.63;;;1.98;;
56477;SDS011;42382;53.210;5.772;2023-06-04T07:27:54;7.18;;;1.73;;
56477;SDS011;42382;53.210;5.772;2023-06-04T07:30:23;7.70;;;1.48;;
56477;SDS011;42382;53.210;5.772;2023-06-04T07:32:50;7.63;;;1.70;;
56477;SDS011;42382;53.210;5.772;2023-06-04T07:35:16;7.00;;;1.65;;
56477;SDS011;42382;53.210;5.772;2023-06-04T07:37:41;5.93;;;2.25;;
56477;SDS011;42382;53.210;5.772;2023-06-04T07:40:09;5.78;;;1.17;;
56477;SDS011;42382;53.210;5.772;2023-06-04T07:42:36;6.40;;;1.38;;
56477;SDS011;42382;53.210;5.772;2023-06-04T07:45:02;8.40;;;1.40;;
56477;SDS011;42382;53.210;5.772;2023-06-04T07:47:28;12.48;;;2.42;;
56477;SDS011;42382;53.210;5.772;2023-06-04T07:49:53;5.45;;;1.27;;
56477;SDS011;42382;53.210;5.772;2023-06-04T07:52:19;5.90;;;1.67;;
56477;SDS011;42382;53.210;5.772;2023-06-04T07:54:45;3.33;;;1.13;;
56477;SDS011;42382;53.210;5.772;2023-06-04T07:57:10;4.53;;;1.20;;
56477;SDS011;42382;53.210;5.772;2023-06-04T07:59:36;4.75;;;1.55;;
56477;SDS011;42382;53.210;5.772;2023-06-04T08:02:01;6.82;;;1.20;;
56477;SDS011;42382;53.210;5.772;2023-06-04T08:04:27;4.78;;;1.45;;
56477;SDS011;42382;53.210;5.772;2023-06-04T08:06:53;5.68;;;1.30;;
56477;SDS011;42382;53.210;5.772;2023-06-04T08:09:19;3.65;;;1.00;;
56477;SDS011;42382;53.210;5.772;2023-06-04T08:11:44;4.03;;;0.85;;
56477;SDS011;42382;53.210;5.772;2023-06-04T08:14:10;3.30;;;0.90;;
56477;SDS011;42382;53.210;5.772;2023-06-04T08:16:38;7.10;;;1.35;;
56477;SDS011;42382;53.210;5.772;2023-06-04T08:19:04;5.70;;;1.17;;
56477;SDS011;42382;53.210;5.772;2023-06-04T08:21:29;4.22;;;1.15;;
56477;SDS011;42382;53.210;5.772;2023-06-04T08:23:55;5.93;;;2.22;;
56477;SDS011;42382;53.210;5.772;2023-06-04T08:26:21;3.50;;;1.10;;
56477;SDS011;42382;53.210;5.772;2023-06-04T08:28:50;4.63;;;1.02;;
56477;SDS011;42382;53.210;5.772;2023-06-04T08:31:16;5.72;;;1.20;;
56477;SDS011;42382;53.210;5.772;2023-06-04T08:33:42;4.95;;;1.35;;
56477;SDS011;42382;53.210;5.772;2023-06-04T08:36:13;4.70;;;0.90;;
56477;SDS011;42382;53.210;5.772;2023-06-04T08:38:39;5.80;;;1.10;;
56477;SDS011;42382;53.210;5.772;2023-06-04T08:41:09;7.25;;;1.52;;
56477;SDS011;42382;53.210;5.772;2023-06-04T08:43:40;3.95;;;0.90;;
56477;SDS011;42382;53.210;5.772;2023-06-04T08:46:09;3.63;;;1.02;;
56477;SDS011;42382;53.210;5.772;2023-06-04T08:48:35;5.50;;;0.90;;
56477;SDS011;42382;53.210;5.772;2023-06-04T08:51:02;3.90;;;0.82;;
56477;SDS011;42382;53.210;5.772;2023-06-04T08:53:31;3.50;;;1.02;;
56477;SDS011;42382;53.210;5.772;2023-06-04T08:55:56;3.80;;;0.73;;
56477;SDS011;42382;53.210;5.772;2023-06-04T08:58:22;3.30;;;0.80;;
56477;SDS011;42382;53.210;5.772;2023-06-04T09:00:49;3.75;;;1.08;;
56477;SDS011;42382;53.210;5.772;2023-06-04T09:03:15;3.70;;;0.88;;
56477;SDS011;42382;53.210;5.772;2023-06-04T09:05:43;4.10;;;1.10;;
56477;SDS011;42382;53.210;5.772;2023-06-04T09:08:12;3.70;;;1.00;;
56477;SDS011;42382;53.210;5.772;2023-06-04T09:10:42;6.00;;;1.08;;
56477;SDS011;42382;53.210;5.772;2023-06-04T09:13:11;2.65;;;0.60;;
56477;SDS011;42382;53.210;5.772;2023-06-04T09:15:40;3.58;;;0.80;;
56477;SDS011;42382;53.210;5.772;2023-06-04T09:18:05;4.75;;;0.75;;
56477;SDS011;42382;53.210;5.772;2023-06-04T09:20:31;5.32;;;1.20;;
56477;SDS011;42382;53.210;5.772;2023-06-04T09:22:57;2.83;;;0.77;;
56477;SDS011;42382;53.210;5.772;2023-06-04T09:25:24;2.95;;;0.60;;
56477;SDS011;42382;53.210;5.772;2023-06-04T09:27:51;3.08;;;0.95;;
56477;SDS011;42382;53.210;5.772;2023-06-04T09:30:17;2.38;;;1.02;;
56477;SDS011;42382;53.210;5.772;2023-06-04T09:32:43;3.60;;;0.90;;
56477;SDS011;42382;53.210;5.772;2023-06-04T09:35:10;4.72;;;0.85;;
56477;SDS011;42382;53.210;5.772;2023-06-04T09:37:53;2.45;;;0.60;;
56477;SDS011;42382;53.210;5.772;2023-06-04T09:40:20;4.70;;;1.35;;
56477;SDS011;42382;53.210;5.772;2023-06-04T09:42:47;4.72;;;1.50;;
56477;SDS011;42382;53.210;5.772;2023-06-04T09:45:29;3.70;;;0.88;;
56477;SDS011;42382;53.210;5.772;2023-06-04T09:47:56;4.78;;;1.02;;
56477;SDS011;42382;53.210;5.772;2023-06-04T09:50:26;5.13;;;1.60;;
56477;SDS011;42382;53.210;5.772;2023-06-04T09:52:53;2.30;;;0.70;;
56477;SDS011;42382;53.210;5.772;2023-06-04T09:55:19;6.18;;;0.90;;
56477;SDS011;42382;53.210;5.772;2023-06-04T09:57:47;4.70;;;1.40;;
56477;SDS011;42382;53.210;5.772;2023-06-04T10:00:16;3.40;;;1.02;;
56477;SDS011;42382;53.210;5.772;2023-06-04T10:02:43;6.53;;;1.45;;
56477;SDS011;42382;53.210;5.772;2023-06-04T10:05:11;5.05;;;1.38;;
56477;SDS011;42382;53.210;5.772;2023-06-04T10:07:39;3.25;;;0.90;;
56477;SDS011;42382;53.210;5.772;2023-06-04T10:10:11;3.28;;;1.00;;
56477;SDS011;42382;53.210;5.772;2023-06-04T10:12:41;3.33;;;1.35;;
56477;SDS011;42382;53.210;5.772;2023-06-04T10:15:11;2.67;;;1.10;;
56477;SDS011;42382;53.210;5.772;2023-06-04T10:17:38;4.53;;;1.42;;
56477;SDS011;42382;53.210;5.772;2023-06-04T10:20:05;4.10;;;1.13;;
56477;SDS011;42382;53.210;5.772;2023-06-04T10:22:33;2.40;;;1.25;;
56477;SDS011;42382;53.210;5.772;2023-06-04T10:25:00;2.75;;;0.90;;
56477;SDS011;42382;53.210;5.772;2023-06-04T10:27:28;4.22;;;1.00;;
56477;SDS011;42382;53.210;5.772;2023-06-04T10:29:55;3.33;;;1.00;;
56477;SDS011;42382;53.210;5.772;2023-06-04T10:32:22;2.63;;;1.08;;
56477;SDS011;42382;53.210;5.772;2023-06-04T10:34:51;1.73;;;0.95;;
56477;SDS011;42382;53.210;5.772;2023-06-04T10:37:20;2.65;;;1.00;;
56477;SDS011;42382;53.210;5.772;2023-06-04T10:39:50;5.43;;;0.90;;
56477;SDS011;42382;53.210;5.772;2023-06-04T10:42:18;2.80;;;0.98;;
56477;SDS011;42382;53.210;5.772;2023-06-04T10:44:45;3.55;;;0.95;;
56477;SDS011;42382;53.210;5.772;2023-06-04T10:47:22;5.20;;;1.00;;
56477;SDS011;42382;53.210;5.772;2023-06-04T10:49:51;2.65;;;1.10;;
56477;SDS011;42382;53.210;5.772;2023-06-04T10:52:19;3.03;;;1.10;;
56477;SDS011;42382;53.210;5.772;2023-06-04T10:54:45;4.50;;;0.80;;
56477;SDS011;42382;53.210;5.772;2023-06-04T10:57:16;3.97;;;1.15;;
56477;SDS011;42382;53.210;5.772;2023-06-04T10:59:55;3.53;;;1.15;;
56477;SDS011;42382;53.210;5.772;2023-06-04T11:02:25;3.67;;;1.30;;
56477;SDS011;42382;53.210;5.772;2023-06-04T11:05:04;2.25;;;0.82;;
56477;SDS011;42382;53.210;5.772;2023-06-04T11:07:42;3.53;;;1.00;;
56477;SDS011;42382;53.210;5.772;2023-06-04T11:10:12;3.00;;;1.23;;
56477;SDS011;42382;53.210;5.772;2023-06-04T11:12:45;5.43;;;1.13;;
56477;SDS011;42382;53.210;5.772;2023-06-04T11:15:17;3.20;;;0.88;;
56477;SDS011;42382;53.210;5.772;2023-06-04T11:17:50;1.90;;;0.70;;
56477;SDS011;42382;53.210;5.772;2023-06-04T11:20:20;2.78;;;1.25;;
56477;SDS011;42382;53.210;5.772;2023-06-04T11:25:18;6.45;;;0.90;;
56477;SDS011;42382;53.210;5.772;2023-06-04T11:27:45;1.85;;;0.65;;
56477;SDS011;42382;53.210;5.772;2023-06-04T11:30:10;3.05;;;1.52;;
56477;SDS011;42382;53.210;5.772;2023-06-04T11:32:37;4.15;;;1.02;;
56477;SDS011;42382;53.210;5.772;2023-06-04T11:35:06;5.03;;;0.93;;
56477;SDS011;42382;53.210;5.772;2023-06-04T11:37:32;3.28;;;0.93;;
56477;SDS011;42382;53.210;5.772;2023-06-04T11:39:59;9.60;;;1.50;;
56477;SDS011;42382;53.210;5.772;2023-06-04T11:42:30;3.40;;;1.17;;
56477;SDS011;42382;53.210;5.772;2023-06-04T11:44:56;3.97;;;0.80;;
56477;SDS011;42382;53.210;5.772;2023-06-04T11:47:22;4.18;;;0.95;;
56477;SDS011;42382;53.210;5.772;2023-06-04T11:49:55;3.60;;;1.05;;
56477;SDS011;42382;53.210;5.772;2023-06-04T11:52:21;2.88;;;0.68;;
56477;SDS011;42382;53.210;5.772;2023-06-04T11:54:47;5.25;;;1.48;;
56477;SDS011;42382;53.210;5.772;2023-06-04T11:57:13;4.60;;;1.05;;
56477;SDS011;42382;53.210;5.772;2023-06-04T11:59:39;4.60;;;1.13;;
56477;SDS011;42382;53.210;5.772;2023-06-04T12:02:05;3.55;;;0.82;;
56477;SDS011;42382;53.210;5.772;2023-06-04T12:04:32;4.43;;;1.05;;
56477;SDS011;42382;53.210;5.772;2023-06-04T12:06:59;3.55;;;0.80;;
56477;SDS011;42382;53.210;5.772;2023-06-04T12:09:31;4.95;;;1.00;;
56477;SDS011;42382;53.210;5.772;2023-06-04T12:12:00;4.93;;;0.88;;
56477;SDS011;42382;53.210;5.772;2023-06-04T12:14:26;4.68;;;1.00;;
56477;SDS011;42382;53.210;5.772;2023-06-04T12:16:59;2.45;;;0.85;;
56477;SDS011;42382;53.210;5.772;2023-06-04T12:19:25;3.83;;;1.00;;
56477;SDS011;42382;53.210;5.772;2023-06-04T12:21:59;3.38;;;0.70;;
56477;SDS011;42382;53.210;5.772;2023-06-04T12:24:28;2.95;;;0.60;;
56477;SDS011;42382;53.210;5.772;2023-06-04T12:27:03;3.95;;;0.90;;
56477;SDS011;42382;53.210;5.772;2023-06-04T12:29:31;4.40;;;0.80;;
56477;SDS011;42382;53.210;5.772;2023-06-04T12:32:04;3.72;;;0.80;;
56477;SDS011;42382;53.210;5.772;2023-06-04T12:34:33;6.97;;;1.30;;
56477;SDS011;42382;53.210;5.772;2023-06-04T12:37:01;2.63;;;0.50;;
56477;SDS011;42382;53.210;5.772;2023-06-04T12:39:32;4.05;;;1.10;;
56477;SDS011;42382;53.210;5.772;2023-06-04T12:42:05;3.05;;;0.55;;
56477;SDS011;42382;53.210;5.772;2023-06-04T12:44:31;2.30;;;0.60;;
56477;SDS011;42382;53.210;5.772;2023-06-04T12:46:57;5.93;;;0.70;;
56477;SDS011;42382;53.210;5.772;2023-06-04T12:49:23;3.00;;;0.90;;
56477;SDS011;42382;53.210;5.772;2023-06-04T12:51:49;5.72;;;1.05;;
56477;SDS011;42382;53.210;5.772;2023-06-04T12:54:14;6.28;;;0.70;;
56477;SDS011;42382;53.210;5.772;2023-06-04T12:56:40;2.17;;;0.90;;
56477;SDS011;42382;53.210;5.772;2023-06-04T12:59:06;2.17;;;0.50;;
56477;SDS011;42382;53.210;5.772;2023-06-04T13:01:32;2.65;;;0.60;;
56477;SDS011;42382;53.210;5.772;2023-06-04T13:03:58;7.28;;;0.82;;
56477;SDS011;42382;53.210;5.772;2023-06-04T13:06:23;7.72;;;0.80;;
56477;SDS011;42382;53.210;5.772;2023-06-04T13:08:49;2.10;;;0.60;;
56477;SDS011;42382;53.210;5.772;2023-06-04T13:11:14;5.35;;;0.80;;
56477;SDS011;42382;53.210;5.772;2023-06-04T13:13:40;2.83;;;0.73;;
56477;SDS011;42382;53.210;5.772;2023-06-04T13:16:07;2.15;;;0.60;;
56477;SDS011;42382;53.210;5.772;2023-06-04T13:18:33;3.20;;;0.55;;
56477;SDS011;42382;53.210;5.772;2023-06-04T13:20:58;2.45;;;0.50;;
56477;SDS011;42382;53.210;5.772;2023-06-04T13:23:27;2.95;;;0.40;;
56477;SDS011;42382;53.210;5.772;2023-06-04T13:25:52;5.47;;;0.68;;
56477;SDS011;42382;53.210;5.772;2023-06-04T13:28:18;3.45;;;0.63;;
56477;SDS011;42382;53.210;5.772;2023-06-04T13:30:44;6.97;;;0.50;;
56477;SDS011;42382;53.210;5.772;2023-06-04T13:33:10;4.40;;;0.70;;
56477;SDS011;42382;53.210;5.772;2023-06-04T13:35:35;3.17;;;0.52;;
56477;SDS011;42382;53.210;5.772;2023-06-04T13:38:04;2.00;;;0.70;;
56477;SDS011;42382;53.210;5.772;2023-06-04T13:40:31;3.42;;;0.60;;
56477;SDS011;42382;53.210;5.772;2023-06-04T13:42:58;3.08;;;0.40;;
56477;SDS011;42382;53.210;5.772;2023-06-04T13:45:24;2.80;;;0.57;;
56477;SDS011;42382;53.210;5.772;2023-06-04T13:47:50;4.13;;;1.02;;
56477;SDS011;42382;53.210;5.772;2023-06-04T13:50:16;3.38;;;0.40;;
56477;SDS011;42382;53.210;5.772;2023-06-04T13:52:41;4.57;;;0.77;;
56477;SDS011;42382;53.210;5.772;2023-06-04T13:55:07;3.38;;;0.73;;
56477;SDS011;42382;53.210;5.772;2023-06-04T13:57:33;5.38;;;1.05;;
56477;SDS011;42382;53.210;5.772;2023-06-04T13:59:59;3.20;;;0.60;;
56477;SDS011;42382;53.210;5.772;2023-06-04T14:02:25;4.72;;;0.98;;
56477;SDS011;42382;53.210;5.772;2023-06-04T14:04:52;3.30;;;0.60;;
56477;SDS011;42382;53.210;5.772;2023-06-04T14:07:18;2.20;;;0.65;;
56477;SDS011;42382;53.210;5.772;2023-06-04T14:09:44;2.88;;;0.93;;
56477;SDS011;42382;53.210;5.772;2023-06-04T14:12:10;3.60;;;0.75;;
56477;SDS011;42382;53.210;5.772;2023-06-04T14:14:36;4.50;;;0.65;;
56477;SDS011;42382;53.210;5.772;2023-06-04T14:17:03;5.25;;;0.90;;
56477;SDS011;42382;53.210;5.772;2023-06-04T14:19:29;6.70;;;2.47;;
56477;SDS011;42382;53.210;5.772;2023-06-04T14:21:54;3.30;;;1.05;;
56477;SDS011;42382;53.210;5.772;2023-06-04T14:24:21;4.72;;;1.15;;
56477;SDS011;42382;53.210;5.772;2023-06-04T14:26:46;4.85;;;0.90;;
56477;SDS011;42382;53.210;5.772;2023-06-04T14:29:12;4.03;;;0.95;;
56477;SDS011;42382;53.210;5.772;2023-06-04T14:31:38;6.32;;;1.15;;
56477;SDS011;42382;53.210;5.772;2023-06-04T14:34:04;4.68;;;0.77;;
56477;SDS011;42382;53.210;5.772;2023-06-04T14:36:32;4.50;;;1.10;;
56477;SDS011;42382;53.210;5.772;2023-06-04T14:38:57;3.83;;;1.00;;
56477;SDS011;42382;53.210;5.772;2023-06-04T14:41:23;7.72;;;1.38;;
56477;SDS011;42382;53.210;5.772;2023-06-04T14:43:49;6.57;;;1.42;;
56477;SDS011;42382;53.210;5.772;2023-06-04T14:46:14;4.63;;;1.33;;
56477;SDS011;42382;53.210;5.772;2023-06-04T14:48:41;5.63;;;1.10;;
56477;SDS011;42382;53.210;5.772;2023-06-04T14:51:06;6.28;;;0.90;;
56477;SDS011;42382;53.210;5.772;2023-06-04T14:53:32;6.18;;;1.10;;
56477;SDS011;42382;53.210;5.772;2023-06-04T14:55:57;3.20;;;1.40;;
56477;SDS011;42382;53.210;5.772;2023-06-04T14:58:23;3.28;;;0.80;;